Time;durP1;ratioP1;P1;durP2;ratioP2;P2;SDS_P1;SDS_P2;PMS_P1;PMS_P2;Temp;Humidity;BMP_temperature;BMP_pressure;BME280_temperature;BME280_humidity;BME280_pressure;Samples;Min_cycle;Max_cycle;Signal;HPM_P1;HPM_P2
2022/09/15 00:02:11;;;;;;;2.20;1.20;;;17.70;99.90;;;;;;8308522;28;20041;-91
2022/09/15 00:06:13;;;;;;;1.77;1.20;;;17.60;99.90;;;;;;8304797;28;20495;-91
2022/09/15 00:10:14;;;;;;;2.63;1.20;;;17.50;99.90;;;;;;8308393;28;20028;-91
2022/09/15 00:14:14;;;;;;;3.28;1.50;;;17.60;99.90;;;;;;8306206;28;20642;-91
2022/09/15 00:18:15;;;;;;;5.45;1.30;;;17.50;99.90;;;;;;8304712;28;20022;-91
2022/09/15 00:22:18;;;;;;;1.70;1.15;;;17.60;99.90;;;;;;8304374;28;20079;-91
2022/09/15 00:26:22;;;;;;;3.97;1.40;;;17.60;99.90;;;;;;8308636;28;20030;-91
2022/09/15 00:30:22;;;;;;;3.55;1.25;;;17.50;99.90;;;;;;8315986;28;20091;-91
2022/09/15 00:34:23;;;;;;;3.08;1.27;;;17.60;99.90;;;;;;8312896;28;20022;-90
2022/09/15 00:38:23;;;;;;;2.28;1.20;;;17.50;99.90;;;;;;8304338;28;20479;-91
2022/09/15 00:42:24;;;;;;;4.85;1.50;;;17.50;99.90;;;;;;8304426;28;20030;-91
2022/09/15 00:46:31;;;;;;;1.60;1.10;;;17.30;99.90;;;;;;8303931;28;20029;-91
2022/09/15 00:50:33;;;;;;;3.33;1.27;;;17.30;99.90;;;;;;8308093;28;20036;-91
2022/09/15 00:54:48;;;;;;;3.90;1.45;;;17.30;99.90;;;;;;8307654;28;20499;-91
2022/09/15 00:59:00;;;;;;;3.22;1.35;;;17.20;99.90;;;;;;8308544;28;20064;-91
2022/09/15 01:03:02;;;;;;;2.35;1.33;;;17.30;99.90;;;;;;8295144;28;20041;-91
2022/09/15 01:07:05;;;;;;;2.22;1.23;;;17.30;99.90;;;;;;8298312;28;20021;-91
2022/09/15 01:11:05;;;;;;;2.17;1.40;;;17.20;99.90;;;;;;8302864;28;20033;-91
2022/09/15 01:15:07;;;;;;;2.85;1.55;;;17.10;99.90;;;;;;8301163;28;20022;-91
2022/09/15 01:19:41;;;;;;;2.53;1.45;;;17.00;99.90;;;;;;8299293;28;20022;-91
2022/09/15 01:23:52;;;;;;;2.13;1.25;;;17.00;99.90;;;;;;8299504;28;20037;-91
2022/09/15 01:28:30;;;;;;;2.22;1.40;;;16.80;99.90;;;;;;8299361;28;20389;-90
2022/09/15 01:33:05;;;;;;;2.92;1.50;;;16.70;99.90;;;;;;8301423;28;20088;-91
2022/09/15 01:37:13;;;;;;;4.65;1.40;;;16.60;99.90;;;;;;8298693;28;20026;-91
2022/09/15 01:41:26;;;;;;;4.03;1.40;;;16.50;99.90;;;;;;8299346;28;20120;-91
2022/09/15 01:45:31;;;;;;;2.55;1.25;;;16.50;99.90;;;;;;8301849;28;20030;-91
2022/09/15 01:49:47;;;;;;;2.70;1.30;;;16.50;99.90;;;;;;8293597;28;20030;-91
2022/09/15 01:53:49;;;;;;;3.13;1.33;;;16.50;99.90;;;;;;8304079;28;21192;-91
2022/09/15 01:57:50;;;;;;;2.33;1.42;;;16.40;99.90;;;;;;8304819;28;20095;-93
2022/09/15 02:02:19;;;;;;;1.75;1.27;;;16.40;99.90;;;;;;8300737;28;20527;-94
2022/09/15 02:06:48;;;;;;;2.90;1.40;;;16.50;99.90;;;;;;8288070;28;20186;-94
2022/09/15 02:11:14;;;;;;;1.60;1.15;;;16.40;99.90;;;;;;8302731;28;20029;-94
2022/09/15 02:15:32;;;;;;;3.95;1.38;;;16.40;99.90;;;;;;8294605;28;20050;-93
2022/09/15 02:19:40;;;;;;;1.02;0.93;;;16.50;99.90;;;;;;8296469;28;20014;-93
2022/09/15 02:23:48;;;;;;;2.17;1.40;;;16.50;99.90;;;;;;8303929;28;20026;-93
2022/09/15 02:27:51;;;;;;;3.65;1.38;;;16.60;99.90;;;;;;8307709;28;20434;-91
2022/09/15 02:31:55;;;;;;;2.95;1.40;;;16.50;99.90;;;;;;8303932;28;20116;-91
2022/09/15 02:35:55;;;;;;;1.77;1.20;;;16.60;99.90;;;;;;8303782;28;20407;-91
2022/09/15 02:39:57;;;;;;;1.88;1.20;;;16.60;99.90;;;;;;8299824;28;20037;-91
2022/09/15 02:43:58;;;;;;;2.35;1.20;;;16.50;99.90;;;;;;8304441;28;20053;-91
2022/09/15 02:47:59;;;;;;;3.38;1.10;;;16.50;99.90;;;;;;8295959;28;20029;-91
2022/09/15 02:51:59;;;;;;;2.00;1.15;;;16.40;99.90;;;;;;8306408;28;20033;-91
2022/09/15 02:56:00;;;;;;;2.83;1.02;;;16.50;99.90;;;;;;8305194;28;20507;-91
2022/09/15 03:00:13;;;;;;;1.65;1.00;;;16.50;99.90;;;;;;8303210;28;20083;-91
2022/09/15 03:04:14;;;;;;;1.90;1.25;;;16.60;99.90;;;;;;8296995;28;20025;-91
2022/09/15 03:08:14;;;;;;;1.33;1.00;;;16.60;99.90;;;;;;8299298;28;20104;-91
2022/09/15 03:12:15;;;;;;;1.73;1.08;;;16.60;99.90;;;;;;8298420;28;20029;-91
2022/09/15 03:16:16;;;;;;;3.88;1.20;;;16.60;99.90;;;;;;8294687;28;20018;-90
2022/09/15 03:20:20;;;;;;;2.15;1.10;;;16.60;99.90;;;;;;8298467;28;20109;-91
2022/09/15 03:24:21;;;;;;;1.10;0.90;;;16.70;99.90;;;;;;8293792;28;20033;-91
2022/09/15 03:28:22;;;;;;;2.60;1.10;;;16.70;99.90;;;;;;8304640;28;20447;-91
2022/09/15 03:32:22;;;;;;;1.13;1.00;;;16.60;99.90;;;;;;8298796;28;20048;-91
2022/09/15 03:36:23;;;;;;;2.67;1.10;;;16.70;99.90;;;;;;8309708;28;20051;-91
2022/09/15 03:40:24;;;;;;;1.60;1.05;;;16.70;99.90;;;;;;8293531;28;20017;-91
2022/09/15 03:44:24;;;;;;;2.72;1.25;;;16.70;99.90;;;;;;8294745;28;20156;-91
2022/09/15 03:48:27;;;;;;;4.47;0.90;;;16.60;99.90;;;;;;8298091;28;20101;-91
2022/09/15 03:52:30;;;;;;;3.20;1.20;;;16.70;99.90;;;;;;8309395;28;20105;-91
2022/09/15 03:56:31;;;;;;;1.48;1.13;;;16.60;99.90;;;;;;8294088;28;20028;-91
2022/09/15 04:00:33;;;;;;;4.03;1.20;;;16.50;99.90;;;;;;8292350;28;20669;-91
2022/09/15 04:04:33;;;;;;;2.45;1.10;;;16.50;99.90;;;;;;8290714;28;20018;-90
2022/09/15 04:08:34;;;;;;;1.23;1.00;;;16.60;99.90;;;;;;8297228;28;20041;-91
2022/09/15 04:12:35;;;;;;;2.58;1.00;;;16.50;99.90;;;;;;8301213;28;20057;-91
2022/09/15 04:16:35;;;;;;;3.70;0.90;;;16.40;99.90;;;;;;8297330;28;20022;-91
2022/09/15 04:20:38;;;;;;;1.58;1.00;;;16.30;99.90;;;;;;8297185;28;20030;-91
2022/09/15 04:24:39;;;;;;;1.23;0.85;;;16.30;99.90;;;;;;8293740;28;20121;-91
2022/09/15 04:28:39;;;;;;;2.90;1.20;;;16.20;99.90;;;;;;8297164;28;20037;-91
2022/09/15 04:32:40;;;;;;;1.70;0.93;;;16.20;99.90;;;;;;8297180;28;20029;-90
2022/09/15 04:36:41;;;;;;;1.40;0.98;;;16.20;99.90;;;;;;8297359;28;20470;-90
2022/09/15 04:40:41;;;;;;;1.30;1.02;;;16.00;99.90;;;;;;8303020;28;20034;-91
2022/09/15 04:44:42;;;;;;;2.17;1.20;;;16.20;99.90;;;;;;8306925;28;20026;-91
2022/09/15 04:48:44;;;;;;;2.47;0.90;;;16.20;99.90;;;;;;8299472;28;20500;-90
2022/09/15 04:52:45;;;;;;;2.83;1.08;;;16.20;99.90;;;;;;8306639;28;20044;-91
2022/09/15 04:56:46;;;;;;;0.93;0.73;;;16.30;99.90;;;;;;8300764;28;20030;-91
2022/09/15 05:00:46;;;;;;;2.38;1.10;;;16.40;99.90;;;;;;8310892;28;20558;-91
2022/09/15 05:04:48;;;;;;;1.63;0.90;;;16.40;99.90;;;;;;8298390;28;20064;-93
2022/09/15 05:08:51;;;;;;;0.93;0.70;;;16.50;99.90;;;;;;8297928;28;20030;-93
2022/09/15 05:12:52;;;;;;;0.80;0.80;;;16.50;99.90;;;;;;8301948;28;20036;-93
2022/09/15 05:16:53;;;;;;;1.88;0.80;;;16.40;99.90;;;;;;8298287;28;20515;-93
2022/09/15 05:20:58;;;;;;;0.95;0.80;;;16.40;99.90;;;;;;8295943;28;20026;-91
2022/09/15 05:24:59;;;;;;;3.22;0.88;;;16.50;99.90;;;;;;8298293;28;20571;-91
2022/09/15 05:28:59;;;;;;;0.73;0.60;;;16.50;99.90;;;;;;8312197;28;20029;-91
2022/09/15 05:33:00;;;;;;;1.45;0.70;;;16.50;99.90;;;;;;8302182;28;20125;-91
2022/09/15 05:37:01;;;;;;;1.00;0.82;;;16.60;99.90;;;;;;8302089;28;20022;-91
2022/09/15 05:41:07;;;;;;;1.50;0.73;;;16.60;99.90;;;;;;8311880;28;20033;-91
2022/09/15 05:45:08;;;;;;;1.20;0.68;;;16.60;99.90;;;;;;8305775;28;20045;-91
2022/09/15 05:49:10;;;;;;;1.67;0.80;;;16.60;99.90;;;;;;8302767;28;20026;-91
2022/09/15 05:53:11;;;;;;;1.08;0.70;;;16.40;99.90;;;;;;8308548;28;20476;-92
2022/09/15 05:57:11;;;;;;;0.90;0.80;;;16.60;99.90;;;;;;8302518;28;20057;-91
2022/09/15 06:01:14;;;;;;;3.35;1.00;;;16.70;99.90;;;;;;8299642;28;20391;-91
2022/09/15 06:05:15;;;;;;;0.95;0.75;;;16.60;99.90;;;;;;8288755;28;20084;-91
2022/09/15 06:09:16;;;;;;;1.00;0.63;;;16.70;99.90;;;;;;8302827;28;20030;-91
2022/09/15 06:13:16;;;;;;;2.05;0.80;;;16.80;99.90;;;;;;8305225;28;20383;-91
2022/09/15 06:17:17;;;;;;;1.77;0.90;;;16.90;99.90;;;;;;8297611;28;20032;-91
2022/09/15 06:21:23;;;;;;;1.27;0.63;;;16.90;99.90;;;;;;8300090;28;20649;-91
2022/09/15 06:25:24;;;;;;;3.05;0.65;;;17.10;99.90;;;;;;8295368;28;20598;-91
2022/09/15 06:29:24;;;;;;;1.58;0.90;;;17.20;99.90;;;;;;8309222;28;20045;-92
2022/09/15 06:33:26;;;;;;;2.10;0.77;;;17.10;99.90;;;;;;8299779;28;20022;-92
2022/09/15 06:37:26;;;;;;;0.90;0.70;;;17.30;99.90;;;;;;8295422;28;20013;-91
2022/09/15 06:41:29;;;;;;;1.45;0.85;;;17.50;99.90;;;;;;8307177;28;20040;-91
2022/09/15 06:45:30;;;;;;;2.40;0.60;;;17.50;99.90;;;;;;8291080;28;20026;-92
2022/09/15 06:49:30;;;;;;;1.60;0.80;;;17.30;99.90;;;;;;8298927;28;20025;-92
2022/09/15 06:53:33;;;;;;;0.95;0.77;;;17.40;99.90;;;;;;8299514;28;20435;-92
2022/09/15 06:57:33;;;;;;;1.13;0.80;;;17.60;99.90;;;;;;8298085;28;20545;-91
2022/09/15 07:01:34;;;;;;;1.17;0.70;;;18.10;99.90;;;;;;8301560;28;20030;-91
2022/09/15 07:05:47;;;;;;;1.52;0.75;;;18.50;99.90;;;;;;8425205;27;1194112;-81
2022/09/15 07:09:48;;;;;;;1.05;0.75;;;18.70;99.90;;;;;;8450715;28;20024;-81
2022/09/15 07:13:49;;;;;;;1.10;0.80;;;18.70;99.90;;;;;;8436822;28;20548;-80
2022/09/15 07:17:49;;;;;;;1.60;0.57;;;18.70;99.90;;;;;;8441953;22;20047;-92
2022/09/15 07:21:51;;;;;;;1.20;0.80;;;18.70;99.90;;;;;;8388929;28;20506;-91
2022/09/15 07:26:02;;;;;;;0.77;0.68;;;18.80;99.90;;;;;;8381425;28;20455;-92
2022/09/15 07:30:07;;;;;;;1.58;0.82;;;18.80;99.90;;;;;;8388673;28;20120;-91
2022/09/15 07:34:07;;;;;;;1.30;0.82;;;18.60;99.90;;;;;;8384491;28;20055;-91
2022/09/15 07:38:09;;;;;;;0.93;0.70;;;18.50;99.90;;;;;;8384900;28;20082;-93
2022/09/15 07:42:09;;;;;;;0.98;0.80;;;18.40;99.90;;;;;;8389505;28;20053;-94
2022/09/15 07:46:10;;;;;;;1.40;0.80;;;18.50;99.90;;;;;;8381990;28;20020;-93
2022/09/15 07:50:13;;;;;;;2.58;0.90;;;18.50;99.90;;;;;;8385739;28;20480;-93
2022/09/15 07:54:14;;;;;;;1.30;0.80;;;18.70;99.90;;;;;;8383980;28;20029;-93
2022/09/15 07:58:14;;;;;;;2.38;0.85;;;19.10;99.90;;;;;;8382950;28;20510;-93
2022/09/15 08:02:17;;;;;;;1.52;0.70;;;19.40;99.90;;;;;;8394783;28;20021;-93
2022/09/15 08:06:21;;;;;;;1.50;0.80;;;19.90;99.90;;;;;;8381453;28;20021;-93
2022/09/15 08:10:24;;;;;;;5.07;0.88;;;20.40;99.90;;;;;;8388047;28;20100;-93
2022/09/15 08:14:24;;;;;;;1.13;0.70;;;20.20;99.90;;;;;;8379132;28;20623;-93
2022/09/15 08:18:25;;;;;;;2.00;0.70;;;20.70;99.90;;;;;;8367532;28;20024;-93
2022/09/15 08:22:25;;;;;;;2.15;0.75;;;21.30;99.90;;;;;;8359575;28;20029;-93
2022/09/15 08:26:27;;;;;;;2.67;0.95;;;21.00;99.90;;;;;;8360851;28;20092;-91
2022/09/15 08:30:28;;;;;;;2.75;0.77;;;21.00;99.90;;;;;;8365427;28;20554;-91
2022/09/15 08:34:29;;;;;;;0.80;0.60;;;21.20;99.90;;;;;;8353332;28;20044;-93
2022/09/15 08:38:29;;;;;;;2.15;0.80;;;20.90;99.90;;;;;;8359698;28;20075;-91
2022/09/15 08:42:30;;;;;;;2.80;0.70;;;20.80;99.90;;;;;;8366760;28;20028;-91
2022/09/15 08:46:37;;;;;;;1.00;0.70;;;20.90;99.90;;;;;;8356899;28;20055;-92
2022/09/15 08:50:46;;;;;;;1.35;0.80;;;21.10;99.90;;;;;;8365021;28;20455;-91
2022/09/15 08:54:51;;;;;;;1.88;0.82;;;21.20;99.90;;;;;;8353915;28;20041;-91
2022/09/15 08:58:51;;;;;;;1.10;0.80;;;21.50;99.90;;;;;;8373628;28;20024;-91
2022/09/15 09:03:05;;;;;;;4.80;1.08;;;21.60;99.90;;;;;;8363189;28;20469;-91
2022/09/15 09:07:08;;;;;;;1.75;0.65;;;21.60;99.90;;;;;;8348957;28;20028;-91
2022/09/15 09:11:34;;;;;;;1.55;0.80;;;21.40;99.90;;;;;;8365698;28;20020;-91
2022/09/15 09:15:53;;;;;;;1.38;1.00;;;21.40;99.90;;;;;;8356603;28;20596;-91
2022/09/15 09:20:00;;;;;;;2.35;0.77;;;20.90;99.90;;;;;;8363144;28;20025;-92
2022/09/15 09:24:24;;;;;;;0.77;0.73;;;20.60;99.90;;;;;;8354292;28;20048;-90
2022/09/15 09:28:38;;;;;;;1.13;0.95;;;20.70;99.90;;;;;;8364834;28;20035;-91
2022/09/15 09:32:59;;;;;;;1.02;0.82;;;20.80;99.90;;;;;;8365723;28;20028;-92
2022/09/15 09:37:12;;;;;;;1.30;1.00;;;21.50;99.90;;;;;;8362369;28;20028;-91
2022/09/15 09:41:24;;;;;;;1.48;0.88;;;22.10;99.90;;;;;;8359545;28;20028;-91
2022/09/15 09:45:25;;;;;;;2.55;1.00;;;22.50;99.90;;;;;;8356181;28;20025;-91
2022/09/15 09:49:44;;;;;;;2.22;0.90;;;22.90;99.90;;;;;;8362163;28;20024;-91
2022/09/15 09:53:52;;;;;;;1.45;1.00;;;22.80;99.90;;;;;;8370249;28;20028;-91
2022/09/15 09:58:09;;;;;;;1.55;1.00;;;22.20;99.90;;;;;;8362647;28;20031;-91
2022/09/15 10:02:10;;;;;;;1.10;0.90;;;21.70;99.90;;;;;;8370160;28;20028;-91
2022/09/15 10:06:21;;;;;;;4.40;1.15;;;21.40;99.90;;;;;;8357961;28;20037;-91
2022/09/15 10:10:24;;;;;;;2.60;1.20;;;21.20;99.90;;;;;;8359695;28;20047;-90
2022/09/15 10:14:34;;;;;;;3.03;1.15;;;21.00;99.90;;;;;;8358656;28;20100;-91
2022/09/15 10:18:38;;;;;;;3.30;0.90;;;21.20;99.90;;;;;;8354295;28;20566;-90
2022/09/15 10:22:40;;;;;;;1.08;0.80;;;21.80;99.90;;;;;;8360572;28;20114;-91
2022/09/15 10:26:43;;;;;;;1.25;0.80;;;21.80;99.90;;;;;;8356799;28;20430;-91
2022/09/15 10:31:09;;;;;;;1.83;1.13;;;21.60;99.90;;;;;;8364610;28;20016;-91
2022/09/15 10:35:13;;;;;;;1.23;0.93;;;21.60;99.90;;;;;;8353756;28;20083;-90
2022/09/15 10:39:34;;;;;;;3.20;1.02;;;21.50;99.90;;;;;;8367623;28;20025;-91
2022/09/15 10:44:02;;;;;;;0.80;0.63;;;21.30;99.90;;;;;;8365266;28;20516;-90
2022/09/15 10:48:03;;;;;;;2.38;0.98;;;21.10;99.90;;;;;;8359700;28;20037;-91
2022/09/15 10:52:18;;;;;;;0.90;0.85;;;21.10;99.90;;;;;;8368300;28;20033;-91
2022/09/15 10:56:33;;;;;;;0.95;0.70;;;21.60;99.90;;;;;;8356818;28;20021;-91
2022/09/15 11:00:48;;;;;;;1.63;1.05;;;21.90;99.90;;;;;;8358417;28;20037;-91
2022/09/15 11:05:04;;;;;;;2.25;0.80;;;22.30;99.90;;;;;;8357919;28;20025;-91
2022/09/15 11:09:20;;;;;;;1.45;0.90;;;22.50;99.90;;;;;;8356949;28;20112;-91
2022/09/15 11:13:45;;;;;;;1.17;0.70;;;22.50;99.90;;;;;;8368078;28;20400;-91
2022/09/15 11:18:39;;;;;;;1.00;0.80;;;23.10;99.90;;;;;;8352963;28;20028;-91
2022/09/15 11:22:51;;;;;;;1.63;1.00;;;23.60;99.90;;;;;;8333438;28;20037;-91
2022/09/15 11:27:21;;;;;;;1.42;0.95;;;24.00;99.90;;;;;;8354161;28;20028;-91
2022/09/15 11:31:39;;;;;;;1.45;0.98;;;25.30;99.90;;;;;;8359279;28;20094;-91
2022/09/15 11:35:59;;;;;;;1.73;0.80;;;26.30;99.90;;;;;;8364914;28;20016;-91
2022/09/15 11:40:12;;;;;;;0.65;0.60;;;25.30;99.90;;;;;;8359079;28;20075;-91
2022/09/15 11:44:26;;;;;;;0.90;0.85;;;25.40;99.90;;;;;;8351650;28;20033;-91
2022/09/15 11:48:39;;;;;;;1.00;0.80;;;24.60;99.90;;;;;;8360879;28;20021;-91
2022/09/15 11:52:54;;;;;;;1.70;0.82;;;24.00;99.90;;;;;;8372611;28;20040;-91
2022/09/15 11:56:55;;;;;;;0.82;0.70;;;23.60;99.90;;;;;;8359744;28;20032;-91
2022/09/15 12:01:00;;;;;;;0.88;0.70;;;22.60;99.90;;;;;;8368306;28;20111;-90
2022/09/15 12:05:17;;;;;;;1.40;0.70;;;21.80;99.90;;;;;;8364034;28;20043;-91
2022/09/15 12:09:20;;;;;;;0.85;0.75;;;22.20;99.90;;;;;;8363487;28;20457;-91
2022/09/15 12:13:23;;;;;;;1.00;0.70;;;23.00;99.90;;;;;;8366962;28;20481;-91
2022/09/15 12:17:29;;;;;;;1.40;0.60;;;24.00;99.90;;;;;;8361999;28;20058;-91
2022/09/15 12:21:42;;;;;;;1.38;0.90;;;23.70;99.90;;;;;;8375388;28;20509;-91
2022/09/15 12:25:49;;;;;;;0.80;0.70;;;23.20;99.90;;;;;;8369966;28;20052;-91
2022/09/15 12:29:51;;;;;;;1.33;1.02;;;22.60;99.90;;;;;;8371847;28;20048;-90
2022/09/15 12:33:59;;;;;;;2.13;0.90;;;21.80;99.90;;;;;;8365257;28;20031;-90
2022/09/15 12:38:00;;;;;;;0.63;0.63;;;21.40;99.90;;;;;;8370137;28;20058;-90
2022/09/15 12:42:17;;;;;;;2.85;1.05;;;20.90;99.90;;;;;;8358419;28;20049;-90
2022/09/15 12:46:18;;;;;;;2.15;1.20;;;20.10;99.90;;;;;;8363561;28;20036;-90
2022/09/15 12:50:55;;;;;;;1.55;1.20;;;19.40;99.90;;;;;;8364971;28;20028;-90
2022/09/15 12:55:01;;;;;;;1.10;1.00;;;19.10;99.90;;;;;;8362396;28;20065;-92
2022/09/15 12:59:10;;;;;;;1.40;1.10;;;18.80;99.90;;;;;;8361139;28;20538;-93
2022/09/15 13:03:48;;;;;;;2.05;1.10;;;19.00;99.90;;;;;;8355831;28;20036;-93
2022/09/15 13:07:58;;;;;;;2.25;1.20;;;18.80;99.90;;;;;;8359878;28;20055;-93
2022/09/15 13:12:01;;;;;;;1.80;1.43;;;18.70;99.90;;;;;;8366505;28;20112;-92
2022/09/15 13:16:07;;;;;;;2.22;1.23;;;18.50;99.90;;;;;;8360610;28;20370;-93
2022/09/15 13:20:13;;;;;;;1.35;1.25;;;18.30;99.90;;;;;;8358649;28;20063;-92
2022/09/15 13:24:27;;;;;;;3.97;1.27;;;18.30;99.90;;;;;;8356453;28;20041;-93
2022/09/15 13:28:28;;;;;;;2.60;1.30;;;18.20;99.90;;;;;;8362054;28;20032;-93
2022/09/15 13:33:01;;;;;;;3.00;1.40;;;18.30;99.90;;;;;;8365057;28;20024;-92
2022/09/15 13:37:09;;;;;;;12.40;2.10;;;18.00;99.90;;;;;;8321061;28;20033;-94
2022/09/15 13:41:44;;;;;;;2.63;1.42;;;17.70;99.90;;;;;;8362309;28;20036;-94
2022/09/15 13:46:07;;;;;;;4.80;1.90;;;17.40;99.90;;;;;;8358212;28;20034;-94
2022/09/15 13:50:24;;;;;;;2.60;1.60;;;17.20;99.90;;;;;;8369066;28;20025;-94
2022/09/15 13:54:25;;;;;;;3.03;1.98;;;17.20;99.90;;;;;;8359059;28;20488;-93
2022/09/15 13:58:26;;;;;;;4.88;2.10;;;17.10;99.90;;;;;;8359840;28;20029;-92
2022/09/15 14:02:26;;;;;;;2.53;1.80;;;17.00;99.90;;;;;;8366062;28;20120;-92
2022/09/15 14:06:33;;;;;;;3.72;2.20;;;17.10;99.90;;;;;;8357042;28;20065;-92
2022/09/15 14:10:47;;;;;;;3.47;2.03;;;17.30;99.90;;;;;;8361362;28;20025;-93
2022/09/15 14:14:52;;;;;;;3.50;2.08;;;18.00;99.90;;;;;;8360487;28;20040;-93
2022/09/15 14:18:56;;;;;;;2.40;1.98;;;18.10;99.90;;;;;;8368822;28;20032;-93
2022/09/15 14:22:58;;;;;;;2.85;1.48;;;18.10;99.90;;;;;;8361091;28;20503;-93
2022/09/15 14:27:07;;;;;;;2.13;1.60;;;18.30;99.90;;;;;;8342059;28;20017;-91
2022/09/15 14:31:07;;;;;;;1.45;1.35;;;18.30;99.90;;;;;;8357350;28;20493;-92
2022/09/15 14:35:16;;;;;;;2.65;1.17;;;18.30;99.90;;;;;;8379911;28;20036;-92
2022/09/15 14:39:22;;;;;;;3.20;1.48;;;18.40;99.90;;;;;;8374249;28;20555;-91
2022/09/15 14:43:31;;;;;;;2.97;1.50;;;18.10;99.90;;;;;;8384062;28;20027;-93
2022/09/15 14:47:32;;;;;;;2.13;1.35;;;18.10;99.90;;;;;;8381467;28;20119;-92
2022/09/15 14:51:33;;;;;;;1.40;1.30;;;17.90;99.90;;;;;;8372862;28;20036;-91
2022/09/15 14:55:46;;;;;;;4.78;1.40;;;17.60;99.90;;;;;;8367016;28;20055;-93
2022/09/15 14:59:55;;;;;;;0.80;0.57;;;17.20;99.90;;;;;;8370372;28;20097;-93
2022/09/15 15:04:02;;;;;;;0.40;0.32;;;16.60;99.90;;;;;;8368089;28;20032;-94
2022/09/15 15:08:07;;;;;;;0.40;0.40;;;16.20;99.90;;;;;;8383711;28;20063;-93
2022/09/15 15:12:42;;;;;;;0.60;0.30;;;16.00;99.90;;;;;;8390618;28;20055;-95
2022/09/15 15:17:01;;;;;;;1.10;0.90;;;16.30;99.90;;;;;;8382499;28;20076;-94
2022/09/15 15:21:02;;;;;;;2.05;1.60;;;16.40;99.90;;;;;;8392623;28;20049;-94
2022/09/15 15:25:21;;;;;;;2.38;1.52;;;16.30;99.90;;;;;;8398135;28;20029;-94
2022/09/15 15:29:34;;;;;;;2.55;2.35;;;16.30;99.90;;;;;;8411772;28;20107;-94
2022/09/15 15:33:35;;;;;;;3.33;2.75;;;16.30;99.90;;;;;;8401990;28;20034;-94
2022/09/15 15:37:35;;;;;;;3.47;3.17;;;16.40;99.90;;;;;;8404736;28;20051;-94
2022/09/15 15:41:40;;;;;;;4.03;3.42;;;16.60;99.90;;;;;;8395676;28;20076;-94
2022/09/15 15:45:50;;;;;;;4.82;3.70;;;16.50;99.90;;;;;;8396695;28;20044;-94
2022/09/15 15:49:58;;;;;;;6.10;4.72;;;16.10;99.90;;;;;;8394746;28;20044;-94
2022/09/15 15:53:59;;;;;;;4.68;3.47;;;15.90;99.90;;;;;;8384736;28;20036;-94
2022/09/15 15:57:59;;;;;;;4.55;3.75;;;15.90;99.90;;;;;;8375770;28;20114;-94
2022/09/15 16:02:00;;;;;;;5.40;4.03;;;15.60;99.90;;;;;;8378997;28;20032;-93
2022/09/15 16:06:01;;;;;;;7.60;4.68;;;15.50;99.90;;;;;;8364591;28;20032;-94
2022/09/15 16:10:03;;;;;;;5.95;4.43;;;15.40;99.90;;;;;;8365719;28;20024;-95
2022/09/15 16:14:03;;;;;;;4.93;4.05;;;15.50;99.90;;;;;;8378252;28;20119;-93
2022/09/15 16:18:04;;;;;;;5.80;4.55;;;15.40;99.90;;;;;;8364280;28;20041;-94
2022/09/15 16:22:05;;;;;;;4.75;4.20;;;15.30;99.90;;;;;;8376765;28;20049;-94
2022/09/15 16:26:06;;;;;;;5.82;3.83;;;15.30;99.90;;;;;;8367423;28;20028;-94
2022/09/15 16:30:10;;;;;;;4.10;3.70;;;15.30;99.90;;;;;;8373573;28;20439;-93
2022/09/15 16:34:16;;;;;;;5.45;4.25;;;15.20;99.90;;;;;;8362227;28;20071;-94
2022/09/15 16:38:18;;;;;;;3.72;3.13;;;15.30;99.90;;;;;;8366461;28;20043;-93
2022/09/15 16:42:19;;;;;;;4.90;2.60;;;15.20;99.90;;;;;;8355625;28;20061;-93
2022/09/15 16:46:19;;;;;;;5.95;2.75;;;15.10;99.90;;;;;;8363782;28;20029;-94
2022/09/15 16:50:20;;;;;;;3.63;3.08;;;14.70;99.90;;;;;;8363782;28;20025;-93
2022/09/15 16:54:21;;;;;;;6.28;3.40;;;14.80;99.90;;;;;;8360718;28;20451;-94
2022/09/15 16:58:22;;;;;;;3.88;3.00;;;14.80;99.90;;;;;;8357389;28;20063;-93
2022/09/15 17:02:22;;;;;;;7.07;2.78;;;14.70;99.90;;;;;;8357653;28;20082;-93
2022/09/15 17:06:23;;;;;;;4.22;2.55;;;14.70;99.90;;;;;;8384704;28;20384;-94
2022/09/15 17:10:24;;;;;;;5.22;3.47;;;14.50;99.90;;;;;;8366871;28;20041;-94
2022/09/15 17:14:24;;;;;;;7.68;3.17;;;14.50;99.90;;;;;;8361144;28;20646;-93
2022/09/15 17:18:26;;;;;;;3.72;2.90;;;14.50;99.90;;;;;;8360093;28;20032;-94
2022/09/15 17:22:26;;;;;;;5.88;3.08;;;14.70;99.90;;;;;;8362044;28;20032;-93
2022/09/15 17:26:27;;;;;;;4.97;3.60;;;14.70;99.90;;;;;;8363173;28;20400;-93
2022/09/15 17:30:31;;;;;;;4.45;3.10;;;14.60;99.90;;;;;;8357684;28;20017;-93
2022/09/15 17:34:32;;;;;;;4.30;3.35;;;14.60;99.90;;;;;;8358034;28;20036;-93
2022/09/15 17:38:33;;;;;;;7.97;3.15;;;14.30;99.90;;;;;;8360442;28;20063;-94
2022/09/15 17:42:33;;;;;;;8.00;3.95;;;14.00;99.90;;;;;;8371913;28;20485;-93
2022/09/15 17:46:34;;;;;;;3.90;3.50;;;13.60;99.90;;;;;;8362264;28;20021;-94
2022/09/15 17:50:36;;;;;;;4.10;3.60;;;13.30;99.90;;;;;;8373546;28;20020;-94
2022/09/15 17:54:37;;;;;;;4.95;3.72;;;13.20;99.90;;;;;;8364025;28;20029;-93
2022/09/15 17:58:38;;;;;;;8.52;4.65;;;13.00;99.90;;;;;;8364802;28;20021;-93
2022/09/15 18:02:41;;;;;;;8.30;4.65;;;12.90;99.90;;;;;;8364611;28;20107;-93
2022/09/15 18:06:42;;;;;;;7.13;4.93;;;12.90;99.90;;;;;;8361053;28;20024;-94
2022/09/15 18:10:43;;;;;;;7.05;5.47;;;12.90;99.90;;;;;;8358691;28;20028;-94
2022/09/15 18:14:43;;;;;;;7.68;5.45;;;12.90;99.90;;;;;;8355678;28;20765;-93
2022/09/15 18:18:45;;;;;;;5.88;5.28;;;12.90;99.90;;;;;;8368243;28;20036;-93
2022/09/15 18:22:47;;;;;;;9.90;5.70;;;12.90;99.90;;;;;;8359441;28;20020;-93
2022/09/15 18:26:48;;;;;;;9.00;6.78;;;13.00;99.90;;;;;;8365794;28;20611;-93
2022/09/15 18:30:49;;;;;;;10.10;5.28;;;13.00;99.90;;;;;;8364063;28;20020;-93
2022/09/15 18:34:49;;;;;;;10.43;5.88;;;13.20;99.90;;;;;;8355437;28;20075;-93
2022/09/15 18:38:50;;;;;;;9.77;6.22;;;13.30;99.90;;;;;;8359746;28;20090;-93
2022/09/15 18:42:50;;;;;;;7.20;6.25;;;13.20;99.90;;;;;;8359610;28;20167;-93
2022/09/15 18:46:51;;;;;;;11.18;6.10;;;13.10;99.90;;;;;;8356517;28;20396;-93
2022/09/15 18:50:52;;;;;;;10.60;6.18;;;13.10;99.90;;;;;;8359645;28;20037;-93
2022/09/15 18:54:52;;;;;;;6.40;4.78;;;13.00;99.90;;;;;;8357991;28;20036;-92
2022/09/15 18:58:53;;;;;;;5.30;4.10;;;13.00;99.90;;;;;;8361645;28;20078;-93
2022/09/15 19:02:56;;;;;;;6.32;4.60;;;12.90;99.90;;;;;;8356681;28;20705;-93
2022/09/15 19:06:57;;;;;;;6.53;5.20;;;12.50;99.90;;;;;;8355343;28;20017;-93
2022/09/15 19:10:59;;;;;;;8.52;6.00;;;12.30;99.90;;;;;;8354620;28;20071;-92
2022/09/15 19:15:00;;;;;;;7.82;5.20;;;12.30;99.90;;;;;;8359121;28;20117;-93
2022/09/15 19:19:00;;;;;;;13.43;5.53;;;12.50;99.90;;;;;;8359128;28;20488;-92
2022/09/15 19:23:01;;;;;;;7.43;5.47;;;12.70;99.90;;;;;;8351161;28;20124;-94
2022/09/15 19:27:03;;;;;;;8.05;5.72;;;12.70;99.90;;;;;;8358986;28;20033;-93
2022/09/15 19:31:05;;;;;;;8.77;5.38;;;12.60;99.90;;;;;;8354249;28;20021;-93
2022/09/15 19:35:07;;;;;;;9.80;5.70;;;12.60;99.90;;;;;;8363614;28;20055;-93
2022/09/15 19:39:11;;;;;;;8.77;5.20;;;12.60;99.90;;;;;;8359796;28;20064;-93
2022/09/15 19:43:11;;;;;;;9.25;5.90;;;12.70;99.90;;;;;;8362621;28;20033;-94
2022/09/15 19:47:12;;;;;;;9.93;6.88;;;12.60;99.90;;;;;;8361532;28;20127;-93
2022/09/15 19:51:13;;;;;;;5.95;5.28;;;12.70;99.90;;;;;;8356471;28;20025;-93
2022/09/15 19:55:14;;;;;;;8.65;5.70;;;13.00;99.90;;;;;;8363013;28;20051;-93
2022/09/15 19:59:14;;;;;;;6.45;4.85;;;13.00;99.90;;;;;;8359468;28;20091;-93
2022/09/15 20:03:15;;;;;;;8.75;5.30;;;12.80;99.90;;;;;;8363949;28;20075;-92
2022/09/15 20:07:16;;;;;;;7.65;5.28;;;12.60;99.90;;;;;;8366326;28;20105;-92
2022/09/15 20:11:17;;;;;;;7.20;5.43;;;12.70;99.90;;;;;;8368843;28;20059;-93
2022/09/15 20:15:18;;;;;;;7.50;5.20;;;12.70;99.90;;;;;;8359116;28;20025;-93
2022/09/15 20:19:18;;;;;;;7.57;5.07;;;12.60;99.90;;;;;;8372604;28;20116;-93
2022/09/15 20:23:20;;;;;;;8.23;5.35;;;12.60;99.90;;;;;;8368470;28;20021;-92
2022/09/15 20:27:20;;;;;;;6.80;5.28;;;12.50;99.90;;;;;;8370435;28;20560;-92
2022/09/15 20:31:25;;;;;;;7.82;5.63;;;12.30;99.90;;;;;;8369479;28;20017;-92
2022/09/15 20:35:25;;;;;;;12.95;6.00;;;12.70;99.90;;;;;;8363038;28;20078;-93
2022/09/15 20:39:26;;;;;;;7.18;5.47;;;12.60;99.90;;;;;;8359829;28;20492;-93
2022/09/15 20:43:27;;;;;;;6.85;5.30;;;12.40;99.90;;;;;;8364614;28;20045;-93
2022/09/15 20:47:27;;;;;;;9.07;6.22;;;12.20;99.90;;;;;;8363594;28;20519;-93
2022/09/15 20:51:32;;;;;;;12.02;6.40;;;12.20;99.90;;;;;;8363548;28;20017;-93
2022/09/15 20:55:33;;;;;;;9.95;7.00;;;12.30;99.90;;;;;;8365788;28;20449;-93
2022/09/15 20:59:33;;;;;;;9.18;7.30;;;12.40;99.90;;;;;;8355289;28;20025;-94
2022/09/15 21:03:36;;;;;;;14.05;7.10;;;12.40;99.90;;;;;;8366542;28;20027;-93
2022/09/15 21:07:36;;;;;;;11.05;6.97;;;12.40;99.90;;;;;;8362798;28;20032;-93
2022/09/15 21:11:38;;;;;;;11.73;6.65;;;12.50;99.90;;;;;;8362609;28;20020;-94
2022/09/15 21:15:38;;;;;;;13.55;6.88;;;12.50;99.90;;;;;;8371851;28;20024;-93